createdAt,value
2022-11-09T00:00:07.089Z,2.85
2022-11-09T00:00:19.582Z,2.90
2022-11-09T00:00:31.511Z,3.00
2022-11-09T00:00:44.296Z,3.03
2022-11-09T00:01:01.298Z,3.10
2022-11-09T00:01:13.225Z,3.03
2022-11-09T00:01:27.351Z,3.08
2022-11-09T00:01:39.546Z,3.40
2022-11-09T00:01:51.546Z,3.30
2022-11-09T00:02:05.376Z,3.15
2022-11-09T00:02:17.284Z,3.20
2022-11-09T00:02:29.203Z,3.20
2022-11-09T00:02:43.975Z,3.22
2022-11-09T00:02:56.043Z,3.45
2022-11-09T00:03:08.092Z,3.90
2022-11-09T00:03:20.345Z,3.95
2022-11-09T00:03:32.627Z,3.88
2022-11-09T00:03:44.765Z,4.78
2022-11-09T00:04:01.946Z,5.97
2022-11-09T00:04:13.888Z,7.97
2022-11-09T00:04:25.812Z,7.47
2022-11-09T00:04:37.713Z,5.78
2022-11-09T00:04:49.686Z,5.10
2022-11-09T00:05:01.638Z,5.22
2022-11-09T00:05:13.555Z,5.40
2022-11-09T00:05:25.456Z,5.55
2022-11-09T00:05:37.964Z,6.43
2022-11-09T00:05:57.086Z,7.10
2022-11-09T00:06:09.215Z,8.30
2022-11-09T00:06:21.160Z,8.63
2022-11-09T00:06:34.003Z,8.48
2022-11-09T00:06:46.013Z,7.40
2022-11-09T00:06:58.052Z,6.75
2022-11-09T00:07:10.130Z,6.43
2022-11-09T00:07:22.201Z,5.82
2022-11-09T00:07:34.132Z,5.07
2022-11-09T00:07:46.086Z,4.90
2022-11-09T00:07:57.993Z,4.60
2022-11-09T00:08:11.446Z,4.40
2022-11-09T00:08:23.439Z,5.70
2022-11-09T00:08:37.691Z,6.43
2022-11-09T00:08:49.696Z,6.03
2022-11-09T00:09:07.431Z,5.13
2022-11-09T00:09:19.922Z,5.30
2022-11-09T00:09:31.934Z,5.38
2022-11-09T00:09:43.923Z,4.82
2022-11-09T00:09:55.922Z,4.55
2022-11-09T00:10:08.242Z,4.43
2022-11-09T00:10:20.267Z,4.60
2022-11-09T00:10:33.102Z,4.70
2022-11-09T00:10:45.037Z,4.50
2022-11-09T00:11:03.751Z,4.30
2022-11-09T00:11:16.069Z,4.22
2022-11-09T00:11:28.053Z,4.20
2022-11-09T00:11:39.958Z,4.30
2022-11-09T00:11:53.870Z,4.25
2022-11-09T00:12:07.402Z,4.53
2022-11-09T00:12:19.347Z,4.53
2022-11-09T00:12:31.263Z,4.03
2022-11-09T00:12:43.168Z,3.67
2022-11-09T00:12:55.067Z,3.78
2022-11-09T00:13:07.001Z,4.03
2022-11-09T00:13:19.234Z,4.00
2022-11-09T00:13:31.808Z,3.92
2022-11-09T00:13:44.952Z,4.13
2022-11-09T00:13:56.924Z,4.50
2022-11-09T00:14:14.288Z,4.72
2022-11-09T00:14:26.214Z,4.40
2022-11-09T00:14:38.745Z,4.20
2022-11-09T00:14:50.674Z,4.00
2022-11-09T00:15:02.613Z,4.10
2022-11-09T00:15:14.548Z,4.07
2022-11-09T00:15:26.462Z,4.53
2022-11-09T00:15:38.366Z,4.78
2022-11-09T00:15:50.399Z,4.82
2022-11-09T00:16:02.363Z,4.60
2022-11-09T00:16:16.760Z,4.25
2022-11-09T00:16:28.873Z,4.20
2022-11-09T00:16:40.882Z,4.32
2022-11-09T00:16:52.820Z,4.50
2022-11-09T00:17:04.910Z,4.40
2022-11-09T00:17:16.855Z,4.40
2022-11-09T00:17:28.773Z,4.38
2022-11-09T00:17:40.678Z,4.38
2022-11-09T00:17:52.592Z,4.60
2022-11-09T00:18:04.554Z,4.70
2022-11-09T00:18:16.472Z,4.77
2022-11-09T00:18:29.631Z,4.93
2022-11-09T00:18:47.253Z,5.13
2022-11-09T00:18:59.329Z,5.28
2022-11-09T00:19:13.197Z,5.50
2022-11-09T00:19:25.160Z,5.90
2022-11-09T00:19:37.157Z,6.03
2022-11-09T00:19:49.048Z,6.10
2022-11-09T00:20:00.967Z,5.85
2022-11-09T00:20:12.949Z,6.07
2022-11-09T00:20:24.859Z,6.22
2022-11-09T00:20:36.780Z,6.78
2022-11-09T00:20:48.831Z,6.60
2022-11-09T00:21:08.839Z,6.38
2022-11-09T00:21:23.215Z,6.70
2022-11-09T00:21:35.239Z,7.07
2022-11-09T00:21:47.222Z,6.90
2022-11-09T00:21:59.147Z,6.75
2022-11-09T00:22:11.144Z,6.55
2022-11-09T00:22:23.068Z,6.47
2022-11-09T00:22:35.008Z,6.32
2022-11-09T00:22:50.275Z,6.50
2022-11-09T00:23:02.213Z,6.53
2022-11-09T00:23:14.233Z,6.68
2022-11-09T00:23:26.156Z,6.65
2022-11-09T00:23:38.355Z,6.43
2022-11-09T00:23:51.092Z,6.22
2022-11-09T00:24:03.135Z,5.85
2022-11-09T00:24:15.257Z,5.90
2022-11-09T00:24:27.144Z,5.60
2022-11-09T00:24:39.080Z,5.50
2022-11-09T00:24:51.019Z,5.53
2022-11-09T00:25:02.942Z,5.53
2022-11-09T00:25:15.296Z,5.68
2022-11-09T00:25:27.251Z,5.78
2022-11-09T00:25:39.177Z,5.88
2022-11-09T00:25:51.152Z,6.28
2022-11-09T00:26:05.066Z,5.93
2022-11-09T00:26:18.588Z,5.32
2022-11-09T00:26:30.510Z,5.60
2022-11-09T00:26:42.818Z,5.75
2022-11-09T00:26:54.764Z,5.75
2022-11-09T00:27:06.679Z,5.75
2022-11-09T00:27:18.588Z,5.68
2022-11-09T00:27:30.503Z,5.50
2022-11-09T00:27:42.506Z,5.45
2022-11-09T00:27:54.439Z,5.50
2022-11-09T00:28:06.427Z,5.50
2022-11-09T00:28:18.355Z,5.60
2022-11-09T00:28:30.347Z,5.30
2022-11-09T00:28:42.294Z,4.90
2022-11-09T00:28:54.308Z,4.93
2022-11-09T00:29:06.411Z,5.13
2022-11-09T00:29:18.353Z,4.97
2022-11-09T00:29:30.334Z,4.93
2022-11-09T00:29:42.337Z,4.78
2022-11-09T00:29:54.255Z,4.80
2022-11-09T00:30:07.023Z,4.95
2022-11-09T00:30:19.033Z,5.20
2022-11-09T00:30:31.425Z,5.18
2022-11-09T00:30:43.437Z,5.20
2022-11-09T00:31:05.841Z,5.07
2022-11-09T00:31:20.571Z,4.60
2022-11-09T00:31:32.562Z,4.40
2022-11-09T00:31:44.484Z,4.20
2022-11-09T00:31:56.393Z,4.40
2022-11-09T00:32:08.312Z,4.22
2022-11-09T00:32:25.220Z,4.22
2022-11-09T00:32:39.636Z,4.10
2022-11-09T00:32:51.567Z,3.92
2022-11-09T00:33:03.555Z,3.85
2022-11-09T00:33:15.528Z,4.00
2022-11-09T00:33:27.692Z,4.23
2022-11-09T00:33:39.685Z,4.40
2022-11-09T00:33:54.203Z,4.38
2022-11-09T00:34:06.106Z,4.13
2022-11-09T00:34:18.029Z,3.97
2022-11-09T00:34:29.936Z,3.95
2022-11-09T00:34:41.937Z,3.88
2022-11-09T00:34:53.845Z,4.00
2022-11-09T00:35:06.168Z,3.70
2022-11-09T00:35:18.064Z,3.80
2022-11-09T00:35:30.040Z,3.75
2022-11-09T00:35:41.958Z,3.80
2022-11-09T00:35:54.786Z,4.40
2022-11-09T00:36:10.302Z,4.30
2022-11-09T00:36:24.250Z,3.53
2022-11-09T00:36:36.185Z,3.38
2022-11-09T00:36:48.100Z,3.58
2022-11-09T00:36:59.986Z,3.63
2022-11-09T00:37:11.957Z,3.60
2022-11-09T00:37:24.156Z,3.65
2022-11-09T00:37:36.209Z,4.03
2022-11-09T00:37:48.222Z,4.05
2022-11-09T00:38:00.276Z,4.10
2022-11-09T00:38:12.235Z,4.00
2022-11-09T00:38:24.243Z,3.95
2022-11-09T00:38:37.382Z,3.85
2022-11-09T00:38:52.482Z,4.10
2022-11-09T00:39:04.535Z,4.28
2022-11-09T00:39:16.537Z,4.50
2022-11-09T00:39:28.452Z,4.80
2022-11-09T00:39:40.354Z,4.70
2022-11-09T00:39:52.245Z,4.60
2022-11-09T00:40:04.528Z,4.80
2022-11-09T00:40:16.642Z,4.80
2022-11-09T00:40:28.546Z,4.97
2022-11-09T00:40:40.471Z,4.75
2022-11-09T00:40:52.462Z,4.38
2022-11-09T00:41:05.594Z,4.28
2022-11-09T00:41:17.789Z,4.50
2022-11-09T00:41:29.693Z,4.60
2022-11-09T00:41:41.656Z,4.50
2022-11-09T00:41:53.581Z,4.43
2022-11-09T00:42:07.231Z,4.63
2022-11-09T00:42:19.144Z,4.68
2022-11-09T00:42:31.069Z,4.65
2022-11-09T00:42:42.986Z,4.50
2022-11-09T00:42:54.901Z,4.35
2022-11-09T00:43:06.804Z,4.50
2022-11-09T00:43:19.192Z,4.47
2022-11-09T00:43:31.322Z,4.35
2022-11-09T00:43:43.215Z,4.40
2022-11-09T00:43:55.354Z,4.32
2022-11-09T00:44:07.541Z,4.20
2022-11-09T00:44:19.556Z,4.30
2022-11-09T00:44:31.539Z,4.25
2022-11-09T00:44:43.435Z,4.15
2022-11-09T00:44:55.396Z,4.20
2022-11-09T00:45:07.808Z,4.30
2022-11-09T00:45:20.300Z,4.38
2022-11-09T00:45:32.247Z,4.30
2022-11-09T00:45:44.215Z,4.00
2022-11-09T00:45:56.203Z,3.90
2022-11-09T00:46:08.730Z,4.07
2022-11-09T00:46:21.006Z,3.97
2022-11-09T00:46:33.290Z,4.20
2022-11-09T00:46:45.474Z,4.30
2022-11-09T00:46:57.407Z,4.13
2022-11-09T00:47:09.321Z,4.20
2022-11-09T00:47:21.227Z,4.32
2022-11-09T00:47:33.204Z,4.30
2022-11-09T00:47:45.096Z,4.30
2022-11-09T00:47:57.012Z,4.10
2022-11-09T00:48:09.207Z,4.05
2022-11-09T00:48:21.503Z,4.28
2022-11-09T00:48:34.067Z,4.30
2022-11-09T00:48:46.504Z,4.22
2022-11-09T00:48:58.499Z,4.05
2022-11-09T00:49:10.391Z,4.15
2022-11-09T00:49:22.338Z,4.20
2022-11-09T00:49:34.355Z,4.18
2022-11-09T00:49:46.292Z,4.07
2022-11-09T00:49:58.225Z,4.10
2022-11-09T00:50:10.293Z,4.30
2022-11-09T00:50:22.186Z,4.10
2022-11-09T00:50:34.163Z,4.20
2022-11-09T00:50:53.096Z,4.15
2022-11-09T00:51:05.630Z,4.32
2022-11-09T00:51:18.484Z,4.25
2022-11-09T00:51:30.378Z,3.95
2022-11-09T00:51:42.296Z,3.95
2022-11-09T00:51:54.534Z,4.25
2022-11-09T00:52:06.460Z,4.28
2022-11-09T00:52:18.356Z,4.13
2022-11-09T00:52:30.279Z,3.92
2022-11-09T00:52:42.803Z,4.00
2022-11-09T00:52:54.708Z,4.20
2022-11-09T00:53:06.645Z,4.55
2022-11-09T00:53:19.783Z,4.70
2022-11-09T00:53:32.716Z,4.32
2022-11-09T00:53:48.125Z,4.43
2022-11-09T00:54:00.013Z,4.80
2022-11-09T00:54:12.148Z,4.68
2022-11-09T00:54:24.209Z,4.45
2022-11-09T00:54:36.352Z,4.35
2022-11-09T00:54:48.252Z,4.28
2022-11-09T00:55:00.185Z,4.25
2022-11-09T00:55:12.104Z,4.40
2022-11-09T00:55:24.475Z,4.50
2022-11-09T00:55:36.417Z,4.40
2022-11-09T00:56:01.817Z,4.25
2022-11-09T00:56:14.454Z,4.43
2022-11-09T00:56:26.351Z,4.43
2022-11-09T00:56:38.314Z,4.35
2022-11-09T00:56:50.232Z,4.22
2022-11-09T00:57:02.201Z,4.20
2022-11-09T00:57:14.174Z,4.30
2022-11-09T00:57:26.055Z,4.22
2022-11-09T00:57:38.009Z,4.03
2022-11-09T00:57:50.796Z,4.10
2022-11-09T00:58:02.695Z,4.40
2022-11-09T00:58:14.576Z,4.53
2022-11-09T00:58:28.399Z,4.43
2022-11-09T00:58:41.042Z,4.40
2022-11-09T00:58:55.545Z,4.00
2022-11-09T00:59:10.607Z,4.03
2022-11-09T00:59:22.533Z,4.20
2022-11-09T00:59:34.441Z,4.10
2022-11-09T00:59:46.468Z,4.20
2022-11-09T00:59:58.368Z,4.25
2022-11-09T01:00:11.195Z,4.32
2022-11-09T01:00:25.738Z,4.30
2022-11-09T01:00:37.633Z,4.00
2022-11-09T01:00:49.906Z,3.90
2022-11-09T01:01:13.751Z,4.28
2022-11-09T01:01:25.910Z,4.60
2022-11-09T01:01:38.038Z,4.25
2022-11-09T01:01:50.066Z,4.00
2022-11-09T01:02:02.005Z,3.92
2022-11-09T01:02:13.919Z,4.00
2022-11-09T01:02:25.909Z,4.15
2022-11-09T01:02:37.817Z,4.13
2022-11-09T01:02:50.280Z,3.80
2022-11-09T01:03:02.187Z,3.92
2022-11-09T01:03:14.153Z,4.35
2022-11-09T01:03:27.097Z,4.35
2022-11-09T01:03:39.493Z,4.22
2022-11-09T01:03:51.790Z,4.00
2022-11-09T01:04:03.701Z,4.07
2022-11-09T01:04:15.599Z,4.00
2022-11-09T01:04:27.823Z,4.00
2022-11-09T01:04:39.740Z,4.00
2022-11-09T01:04:51.631Z,3.92
2022-11-09T01:05:03.869Z,3.90
2022-11-09T01:05:15.963Z,3.88
2022-11-09T01:05:27.902Z,3.90
2022-11-09T01:05:39.861Z,3.80
2022-11-09T01:05:52.516Z,3.80
2022-11-09T01:06:05.249Z,3.60
2022-11-09T01:06:25.544Z,3.83
2022-11-09T01:06:37.536Z,4.25
2022-11-09T01:06:49.653Z,4.10
2022-11-09T01:07:01.639Z,3.80
2022-11-09T01:07:13.600Z,3.78
2022-11-09T01:07:25.731Z,4.05
2022-11-09T01:07:38.171Z,3.85
2022-11-09T01:07:50.208Z,3.70
2022-11-09T01:08:02.271Z,3.92
2022-11-09T01:08:14.581Z,4.15
2022-11-09T01:08:26.570Z,3.92
2022-11-09T01:08:38.591Z,3.67
2022-11-09T01:08:50.980Z,3.60
2022-11-09T01:09:03.014Z,3.70
2022-11-09T01:09:14.916Z,3.75
2022-11-09T01:09:26.873Z,3.70
2022-11-09T01:09:39.061Z,3.80
2022-11-09T01:09:51.064Z,4.03
2022-11-09T01:10:04.033Z,4.03
2022-11-09T01:10:15.980Z,3.80
2022-11-09T01:10:27.900Z,3.95
2022-11-09T01:10:42.647Z,3.78
2022-11-09T01:10:54.575Z,3.65
2022-11-09T01:11:09.253Z,3.70
2022-11-09T01:11:22.609Z,4.03
2022-11-09T01:11:34.580Z,4.45
2022-11-09T01:11:46.553Z,4.50
2022-11-09T01:11:58.525Z,4.05
2022-11-09T01:12:10.447Z,3.80
2022-11-09T01:12:22.358Z,4.05
2022-11-09T01:12:34.594Z,4.10
2022-11-09T01:12:46.579Z,3.88
2022-11-09T01:12:58.525Z,3.47
2022-11-09T01:13:12.519Z,3.20
2022-11-09T01:13:24.421Z,3.20
2022-11-09T01:13:37.629Z,3.20
2022-11-09T01:13:49.807Z,3.40
2022-11-09T01:14:02.176Z,3.42
2022-11-09T01:14:14.091Z,3.67
2022-11-09T01:14:26.095Z,3.67
2022-11-09T01:14:38.025Z,3.60
2022-11-09T01:14:49.963Z,3.90
2022-11-09T01:15:01.865Z,3.90
2022-11-09T01:15:13.886Z,4.00
2022-11-09T01:15:26.222Z,3.80
2022-11-09T01:15:48.254Z,3.63
2022-11-09T01:16:00.310Z,4.00
2022-11-09T01:16:17.430Z,4.00
2022-11-09T01:16:29.404Z,4.07
2022-11-09T01:16:41.335Z,4.10
2022-11-09T01:16:53.281Z,4.10
2022-11-09T01:17:05.239Z,4.00
2022-11-09T01:17:17.195Z,3.80
2022-11-09T01:17:29.117Z,3.70
2022-11-09T01:17:41.099Z,3.80
2022-11-09T01:17:53.024Z,4.00
2022-11-09T01:18:05.025Z,4.10
2022-11-09T01:18:19.784Z,4.05
2022-11-09T01:18:31.806Z,3.85
2022-11-09T01:18:44.138Z,3.90
2022-11-09T01:18:57.811Z,4.03
2022-11-09T01:19:09.846Z,3.83
2022-11-09T01:19:21.786Z,3.67
2022-11-09T01:19:33.693Z,3.50
2022-11-09T01:19:45.604Z,3.60
2022-11-09T01:19:57.512Z,3.80
2022-11-09T01:20:10.157Z,3.80
2022-11-09T01:20:22.092Z,3.67
2022-11-09T01:20:34.026Z,4.13
2022-11-09T01:20:49.082Z,4.30
2022-11-09T01:21:03.445Z,4.18
2022-11-09T01:21:15.885Z,4.13
2022-11-09T01:21:29.550Z,4.13
2022-11-09T01:21:41.574Z,4.10
2022-11-09T01:21:53.512Z,3.90
2022-11-09T01:22:05.447Z,3.70
2022-11-09T01:22:19.070Z,3.53
2022-11-09T01:22:31.033Z,3.60
2022-11-09T01:22:43.159Z,3.47
2022-11-09T01:22:55.087Z,3.38
2022-11-09T01:23:08.146Z,3.30
2022-11-09T01:23:21.423Z,3.40
2022-11-09T01:23:34.356Z,3.60
2022-11-09T01:23:46.400Z,3.80
2022-11-09T01:23:58.916Z,3.92
2022-11-09T01:24:10.844Z,3.75
2022-11-09T01:24:22.879Z,3.58
2022-11-09T01:24:34.787Z,3.55
2022-11-09T01:24:46.748Z,3.90
2022-11-09T01:24:58.668Z,3.80
2022-11-09T01:25:10.586Z,3.35
2022-11-09T01:25:22.547Z,4.00
2022-11-09T01:25:34.756Z,4.15
2022-11-09T01:25:46.716Z,4.30
2022-11-09T01:26:00.764Z,3.80
2022-11-09T01:26:14.381Z,3.83
2022-11-09T01:26:26.429Z,4.00
2022-11-09T01:26:38.346Z,3.88
2022-11-09T01:26:50.280Z,3.70
2022-11-09T01:27:02.206Z,3.78
2022-11-09T01:27:14.190Z,4.15
2022-11-09T01:27:26.144Z,4.10
2022-11-09T01:27:38.080Z,4.07
2022-11-09T01:27:49.981Z,4.00
2022-11-09T01:28:02.186Z,3.83
2022-11-09T01:28:14.147Z,3.67
2022-11-09T01:28:26.407Z,3.83
2022-11-09T01:28:38.625Z,4.05
2022-11-09T01:28:50.568Z,4.28
2022-11-09T01:29:02.715Z,3.90
2022-11-09T01:29:14.651Z,3.80
2022-11-09T01:29:26.621Z,3.70
2022-11-09T01:29:38.603Z,3.78
2022-11-09T01:29:50.509Z,3.70
2022-11-09T01:30:02.852Z,3.83
2022-11-09T01:30:14.773Z,3.70
2022-11-09T01:30:26.732Z,3.35
2022-11-09T01:30:41.652Z,3.50
2022-11-09T01:30:54.072Z,3.65
2022-11-09T01:31:12.145Z,3.63
2022-11-09T01:31:24.132Z,3.50
2022-11-09T01:31:36.052Z,3.60
2022-11-09T01:31:48.905Z,3.78
2022-11-09T01:32:00.807Z,3.83
2022-11-09T01:32:12.712Z,3.70
2022-11-09T01:32:24.638Z,3.70
2022-11-09T01:32:36.553Z,3.90
2022-11-09T01:32:48.465Z,4.03
2022-11-09T01:33:00.414Z,3.90
2022-11-09T01:33:12.499Z,3.78
2022-11-09T01:33:24.416Z,3.75
2022-11-09T01:33:37.042Z,3.80
2022-11-09T01:33:49.104Z,3.90
2022-11-09T01:34:00.995Z,3.80
2022-11-09T01:34:13.008Z,3.90
2022-11-09T01:34:24.937Z,3.85
2022-11-09T01:34:36.917Z,3.75
2022-11-09T01:34:48.825Z,3.70
2022-11-09T01:35:00.795Z,4.00
2022-11-09T01:35:12.744Z,4.10
2022-11-09T01:35:24.652Z,4.10
2022-11-09T01:35:38.365Z,4.03
2022-11-09T01:35:50.300Z,3.85
2022-11-09T01:36:07.466Z,3.70
2022-11-09T01:36:22.290Z,3.65
2022-11-09T01:36:34.220Z,3.80
2022-11-09T01:36:46.147Z,3.97
2022-11-09T01:36:59.152Z,4.13
2022-11-09T01:37:11.061Z,4.20
2022-11-09T01:37:23.296Z,4.00
2022-11-09T01:37:35.226Z,3.83
2022-11-09T01:37:47.165Z,4.03
2022-11-09T01:37:59.114Z,4.20
2022-11-09T01:38:11.085Z,4.28
2022-11-09T01:38:23.065Z,4.10
2022-11-09T01:38:38.266Z,4.00
2022-11-09T01:38:50.892Z,4.00
2022-11-09T01:39:02.887Z,4.00
2022-11-09T01:39:14.820Z,4.10
2022-11-09T01:39:26.765Z,4.13
2022-11-09T01:39:38.680Z,3.95
2022-11-09T01:39:50.600Z,3.97
2022-11-09T01:40:02.617Z,4.13
2022-11-09T01:40:14.770Z,4.30
2022-11-09T01:40:28.325Z,4.25
2022-11-09T01:40:40.657Z,3.97
2022-11-09T01:40:52.555Z,4.07
2022-11-09T01:41:06.140Z,4.20
2022-11-09T01:41:19.878Z,4.20
2022-11-09T01:41:31.800Z,4.00
2022-11-09T01:41:43.751Z,3.85
2022-11-09T01:41:55.685Z,3.95
2022-11-09T01:42:07.593Z,4.05
2022-11-09T01:42:26.388Z,3.95
2022-11-09T01:42:39.117Z,3.78
2022-11-09T01:42:51.041Z,3.70
2022-11-09T01:43:15.123Z,3.90
2022-11-09T01:43:27.358Z,4.20
2022-11-09T01:43:39.414Z,3.75
2022-11-09T01:44:03.404Z,3.47
2022-11-09T01:44:19.578Z,4.00
2022-11-09T01:44:32.096Z,4.10
2022-11-09T01:44:44.014Z,4.10
2022-11-09T01:45:17.558Z,3.90
2022-11-09T01:45:30.991Z,4.07
2022-11-09T01:45:48.641Z,4.32
2022-11-09T01:46:05.543Z,4.10
2022-11-09T01:46:24.886Z,4.07
2022-11-09T01:46:45.418Z,4.03
2022-11-09T01:47:03.389Z,3.83
2022-11-09T01:47:24.799Z,4.28
2022-11-09T01:47:36.720Z,4.10
2022-11-09T01:47:58.637Z,3.90
2022-11-09T01:48:18.324Z,4.22
2022-11-09T01:48:47.867Z,3.90
2022-11-09T01:49:05.303Z,3.83
2022-11-09T01:49:40.835Z,3.50
2022-11-09T01:49:56.571Z,3.30
2022-11-09T01:50:11.780Z,3.53
2022-11-09T01:50:32.376Z,3.92
2022-11-09T01:51:19.989Z,3.90
2022-11-09T01:51:38.178Z,3.53
2022-11-09T01:51:56.189Z,3.80
2022-11-09T01:52:13.962Z,4.00
2022-11-09T01:52:32.322Z,3.85
2022-11-09T01:52:48.105Z,3.90
2022-11-09T01:53:03.900Z,3.90
2022-11-09T01:53:20.957Z,3.78
2022-11-09T01:53:36.895Z,3.83
2022-11-09T01:53:52.920Z,3.90
2022-11-09T01:54:30.191Z,4.10
2022-11-09T01:54:45.976Z,3.72
2022-11-09T01:55:03.122Z,3.80
2022-11-09T01:55:23.112Z,3.95
2022-11-09T01:55:36.000Z,3.80
2022-11-09T01:55:52.834Z,3.75
2022-11-09T01:56:09.050Z,3.70
2022-11-09T01:56:21.017Z,3.65
2022-11-09T01:56:33.380Z,4.07
2022-11-09T01:56:48.420Z,4.28
2022-11-09T01:57:05.889Z,4.20
2022-11-09T01:57:41.237Z,3.92
2022-11-09T01:58:27.709Z,3.90
2022-11-09T01:59:51.590Z,3.67
2022-11-09T02:00:07.953Z,3.60
2022-11-09T02:00:20.403Z,3.53
2022-11-09T02:00:34.700Z,3.80
2022-11-09T02:00:50.121Z,3.60
2022-11-09T02:01:02.945Z,3.53
2022-11-09T02:01:17.650Z,3.73
2022-11-09T02:01:31.328Z,3.95
2022-11-09T02:01:44.046Z,4.10
2022-11-09T02:01:56.756Z,4.10
2022-11-09T02:02:09.260Z,3.90
2022-11-09T02:02:21.832Z,3.92
2022-11-09T02:02:35.281Z,3.80
2022-11-09T02:03:02.604Z,3.60
2022-11-09T02:03:30.977Z,3.75
2022-11-09T02:03:54.077Z,3.75
2022-11-09T02:04:11.764Z,3.78
2022-11-09T02:04:30.416Z,3.83
2022-11-09T02:04:55.461Z,3.80
2022-11-09T02:05:12.408Z,3.70
2022-11-09T02:05:28.065Z,3.67
2022-11-09T02:05:41.771Z,3.65
2022-11-09T02:05:54.031Z,3.60
2022-11-09T02:06:10.086Z,3.50
2022-11-09T02:06:25.549Z,3.50
2022-11-09T02:06:37.720Z,3.50
2022-11-09T02:06:50.650Z,3.67
2022-11-09T02:07:03.076Z,3.70
2022-11-09T02:07:15.282Z,3.60
2022-11-09T02:07:27.808Z,3.40
2022-11-09T02:07:41.370Z,3.40
2022-11-09T02:07:55.177Z,3.45
2022-11-09T02:08:08.858Z,3.42
2022-11-09T02:08:25.073Z,3.60
2022-11-09T02:08:37.454Z,3.80
2022-11-09T02:08:49.567Z,3.72
2022-11-09T02:09:10.010Z,3.92
2022-11-09T02:09:51.464Z,3.53
2022-11-09T02:10:14.829Z,3.90
2022-11-09T02:10:35.619Z,3.72
2022-11-09T02:11:07.434Z,3.67
2022-11-09T02:11:20.941Z,4.10
2022-11-09T02:11:34.697Z,3.95
2022-11-09T02:11:46.652Z,4.03
2022-11-09T02:11:59.382Z,4.18
2022-11-09T02:12:11.441Z,4.00
2022-11-09T02:12:25.258Z,3.90
2022-11-09T02:12:37.370Z,3.90
2022-11-09T02:12:49.941Z,4.00
2022-11-09T02:13:03.372Z,4.03
2022-11-09T02:13:19.017Z,4.07
2022-11-09T02:13:33.121Z,4.30
2022-11-09T02:13:51.703Z,4.10
2022-11-09T02:14:06.428Z,4.00
2022-11-09T02:14:20.666Z,4.15
2022-11-09T02:14:33.897Z,4.22
2022-11-09T02:14:49.213Z,4.20
2022-11-09T02:15:05.358Z,4.03
2022-11-09T02:15:17.361Z,4.00
2022-11-09T02:15:29.970Z,3.92
2022-11-09T02:15:45.688Z,3.90
2022-11-09T02:15:58.977Z,4.10
2022-11-09T02:16:13.299Z,4.18
2022-11-09T02:16:26.516Z,3.75
2022-11-09T02:16:40.246Z,3.60
2022-11-09T02:16:52.326Z,3.65
2022-11-09T02:17:05.103Z,3.78
2022-11-09T02:17:18.641Z,3.92
2022-11-09T02:17:31.037Z,4.05
2022-11-09T02:17:44.183Z,3.85
2022-11-09T02:17:58.197Z,3.70
2022-11-09T02:18:10.900Z,3.70
2022-11-09T02:18:23.063Z,3.88
2022-11-09T02:18:36.580Z,3.83
2022-11-09T02:18:56.528Z,3.80
2022-11-09T02:19:08.515Z,3.85
2022-11-09T02:19:20.438Z,3.83
2022-11-09T02:19:32.351Z,3.90
2022-11-09T02:19:44.261Z,3.72
2022-11-09T02:19:58.637Z,3.47
2022-11-09T02:20:15.478Z,3.83
2022-11-09T02:20:28.405Z,4.10
2022-11-09T02:20:49.476Z,3.92
2022-11-09T02:21:01.559Z,3.67
2022-11-09T02:21:13.505Z,3.70
2022-11-09T02:21:28.396Z,3.67
2022-11-09T02:21:40.389Z,3.50
2022-11-09T02:21:52.334Z,3.50
2022-11-09T02:22:04.391Z,3.45
2022-11-09T02:22:16.701Z,3.70
2022-11-09T02:22:28.606Z,3.63
2022-11-09T02:22:41.611Z,3.55
2022-11-09T02:22:53.585Z,3.50
2022-11-09T02:23:05.542Z,3.47
2022-11-09T02:23:19.268Z,3.47
2022-11-09T02:23:31.468Z,3.60
2022-11-09T02:23:43.435Z,3.70
2022-11-09T02:23:55.944Z,3.58
2022-11-09T02:24:08.040Z,3.80
2022-11-09T02:24:20.043Z,3.83
2022-11-09T02:24:33.107Z,4.10
2022-11-09T02:24:45.277Z,4.28
2022-11-09T02:24:57.194Z,4.38
2022-11-09T02:25:10.445Z,4.50
2022-11-09T02:25:22.468Z,4.47
2022-11-09T02:25:34.369Z,4.20
2022-11-09T02:25:54.008Z,4.22
2022-11-09T02:26:10.690Z,4.00
2022-11-09T02:26:25.078Z,4.05
2022-11-09T02:26:47.614Z,4.00
2022-11-09T02:26:59.872Z,4.10
2022-11-09T02:27:11.814Z,4.13
2022-11-09T02:27:24.352Z,4.20
2022-11-09T02:27:37.602Z,4.35
2022-11-09T02:27:50.139Z,4.20
2022-11-09T02:28:02.155Z,3.83
2022-11-09T02:28:16.289Z,3.60
2022-11-09T02:28:28.881Z,3.92
2022-11-09T02:28:42.303Z,4.40
2022-11-09T02:28:56.204Z,4.60
2022-11-09T02:29:12.066Z,4.40
2022-11-09T02:29:28.420Z,4.13
2022-11-09T02:29:46.513Z,3.95
2022-11-09T02:30:00.036Z,4.03
2022-11-09T02:30:13.530Z,4.05
2022-11-09T02:30:25.707Z,4.22
2022-11-09T02:30:38.894Z,3.97
2022-11-09T02:30:53.604Z,3.95
2022-11-09T02:31:08.297Z,4.20
2022-11-09T02:31:22.463Z,4.30
2022-11-09T02:31:38.679Z,4.28
2022-11-09T02:32:02.374Z,4.00
2022-11-09T02:32:20.893Z,4.28
2022-11-09T02:32:33.197Z,4.30
2022-11-09T02:32:45.096Z,3.85
2022-11-09T02:32:57.003Z,3.65
2022-11-09T02:33:08.903Z,3.70
2022-11-09T02:33:21.677Z,3.97
2022-11-09T02:34:11.798Z,4.00
2022-11-09T02:34:24.735Z,4.13
2022-11-09T02:34:36.712Z,4.22
2022-11-09T02:34:48.665Z,4.07
2022-11-09T02:35:00.634Z,3.90
2022-11-09T02:35:13.451Z,3.88
2022-11-09T02:35:25.354Z,4.18
2022-11-09T02:35:37.308Z,4.20
2022-11-09T02:35:49.309Z,3.97
2022-11-09T02:36:01.232Z,4.03
2022-11-09T02:36:13.169Z,3.90
2022-11-09T02:36:25.353Z,3.85
2022-11-09T02:36:37.400Z,3.60
2022-11-09T02:36:49.346Z,3.30
2022-11-09T02:37:01.291Z,3.65
2022-11-09T02:37:13.240Z,3.78
2022-11-09T02:37:27.974Z,3.80
2022-11-09T02:37:49.885Z,3.70
2022-11-09T02:38:01.889Z,3.80
2022-11-09T02:38:15.191Z,3.85
2022-11-09T02:38:27.103Z,3.88
2022-11-09T02:38:39.012Z,4.18
2022-11-09T02:38:54.535Z,4.15
2022-11-09T02:39:06.891Z,3.95
2022-11-09T02:39:23.040Z,4.10
2022-11-09T02:39:35.258Z,4.20
2022-11-09T02:39:47.228Z,3.97
2022-11-09T02:40:01.387Z,3.97
2022-11-09T02:40:19.329Z,4.13
2022-11-09T02:40:36.509Z,4.30
2022-11-09T02:40:51.386Z,4.15
2022-11-09T02:41:03.766Z,4.15
2022-11-09T02:41:16.448Z,4.32
2022-11-09T02:41:31.782Z,4.28
2022-11-09T02:41:52.115Z,4.20
2022-11-09T02:42:19.934Z,4.03
2022-11-09T02:42:33.693Z,4.30
2022-11-09T02:42:45.804Z,4.30
2022-11-09T02:42:57.812Z,4.10
2022-11-09T02:43:11.983Z,3.90
2022-11-09T02:43:24.194Z,3.65
2022-11-09T02:43:36.817Z,3.60
2022-11-09T02:43:51.479Z,3.47
2022-11-09T02:44:03.527Z,3.65
2022-11-09T02:44:16.532Z,3.80
2022-11-09T02:44:30.237Z,3.80
2022-11-09T02:44:47.804Z,4.03
2022-11-09T02:45:00.222Z,4.28
2022-11-09T02:45:12.469Z,3.97
2022-11-09T02:45:24.426Z,4.00
2022-11-09T02:45:37.173Z,4.10
2022-11-09T02:45:49.168Z,4.28
2022-11-09T02:46:01.183Z,4.13
2022-11-09T02:46:13.096Z,3.92
2022-11-09T02:46:34.229Z,4.15
2022-11-09T02:46:46.526Z,4.28
2022-11-09T02:46:58.456Z,3.95
2022-11-09T02:47:10.458Z,4.30
2022-11-09T02:47:22.438Z,4.40
2022-11-09T02:47:34.418Z,4.30
2022-11-09T02:47:46.354Z,4.20
2022-11-09T02:47:58.348Z,4.40
2022-11-09T02:48:10.276Z,4.60
2022-11-09T02:48:22.159Z,4.32
2022-11-09T02:48:34.089Z,4.22
2022-11-09T02:48:46.000Z,4.10
2022-11-09T02:48:57.909Z,4.05
2022-11-09T02:49:09.933Z,4.05
2022-11-09T02:49:21.923Z,3.78
2022-11-09T02:49:33.902Z,3.97
2022-11-09T02:49:45.884Z,4.10
2022-11-09T02:49:57.947Z,4.05
2022-11-09T02:50:10.361Z,3.97
2022-11-09T02:50:22.339Z,4.13
2022-11-09T02:50:36.107Z,4.10
2022-11-09T02:50:48.001Z,3.80
2022-11-09T02:50:59.895Z,3.80
2022-11-09T02:51:11.812Z,4.03
2022-11-09T02:51:23.732Z,4.15
2022-11-09T02:51:35.733Z,3.90
2022-11-09T02:51:47.648Z,4.00
2022-11-09T02:51:59.561Z,3.95
2022-11-09T02:52:11.487Z,4.30
2022-11-09T02:52:24.023Z,4.38
2022-11-09T02:52:35.996Z,4.70
2022-11-09T02:52:48.005Z,4.63
2022-11-09T02:52:59.928Z,4.60
2022-11-09T02:53:11.841Z,4.40
2022-11-09T02:53:23.823Z,4.35
2022-11-09T02:53:35.836Z,4.50
2022-11-09T02:53:47.808Z,4.60
2022-11-09T02:53:59.733Z,4.40
2022-11-09T02:54:11.714Z,4.35
2022-11-09T02:54:23.777Z,4.20
2022-11-09T02:54:35.806Z,4.20
2022-11-09T02:54:47.740Z,4.18
2022-11-09T02:54:59.679Z,4.15
2022-11-09T02:55:11.709Z,4.45
2022-11-09T02:55:23.664Z,4.50
2022-11-09T02:55:35.883Z,4.55
2022-11-09T02:55:47.791Z,4.50
2022-11-09T02:55:59.736Z,4.68
2022-11-09T02:56:11.666Z,4.38
2022-11-09T02:56:24.068Z,4.25
2022-11-09T02:56:36.101Z,4.22
2022-11-09T02:56:48.175Z,4.13
2022-11-09T02:57:00.211Z,4.07
2022-11-09T02:57:12.172Z,4.10
2022-11-09T02:57:24.101Z,4.32
2022-11-09T02:57:36.091Z,4.30
2022-11-09T02:57:48.080Z,4.32
2022-11-09T02:58:00.067Z,4.35
2022-11-09T02:58:12.056Z,4.35
2022-11-09T02:58:23.996Z,4.20
2022-11-09T02:58:35.892Z,4.35
2022-11-09T02:58:47.839Z,4.57
2022-11-09T02:58:59.790Z,4.57
2022-11-09T02:59:11.703Z,4.35
2022-11-09T02:59:23.655Z,4.40
2022-11-09T02:59:35.595Z,4.30
2022-11-09T02:59:47.506Z,4.10
2022-11-09T02:59:59.428Z,4.00